Maasmarathon de la Basse-Meuse
CAP Visé, 14/05/2017, BEL
Marathon - Après 21km
21.095km 
Catégorie
PosNrNomAgeIOCEquipeRéelTempsTkmMoy.RangNomLocalité
1.1SLIMANI Benazzouz42MAR1:13:113:29 17.301h40ITALIA
2.19EL MOUAZIZ Abdehkadi40MAR1:13:113:29 17.302h40MAROC
3.534DEVOS Gerd28BELDCLA1:13:113:29 17.301senDENTERGEM
4.2BRANDENBOURG Michael31BEL1:14:083:31 17.082senDINANT
5.6FJERONOH Meryline25KEN1:20:423:50 15.681damLYON
6.688VANDEBROUCK Jeroen33BELAV TOEKOMST1:20:423:50 15.683senHEUSDEN-ZOLDER
7.642PHILIPPE Patrick48BELJOG IN ATTITUDE1:20:573:51 15.641h45LIEGE
8.590GILBERT Michel50BELA.T.C.C. TRIATH1:20:593:51 15.631h50MARCINELLE
9.731MORTIER Maarten35BEL1:21:053:51 15.611h35
10.362SANFILIPPO Salvatore45BEL1:22:083:54 15.412h45JEMEPPE SUR MEUSE
11.421PASQUE Cedric38BELBOUFFIOLS1:22:083:54 15.412h35BOUFFIOULX
12.725MATHOT Michel43BEL1:23:503:59 15.103h40
13.760VAN RIJSWIJK Bram36BEL1:24:224:00 15.003h35
14.529HERTOGEN Ronny46BEL1:24:274:01 14.993h45TONGEREN
15.111LEDUC Jérôme29BELTDCH1:24:344:01 14.974senVISÉ
16.613MONIOTTE Stéphane44BELCHC1:24:454:02 14.944h40BRUXELLES
17.299JACOB François37BEL1:25:194:03 14.844h35MAGNÉE
18.697VELDMAN Henri55NLD1:25:254:03 14.821h55
19.368PAULISSEN Maarten34BELALU-PEX.BE1:25:264:03 14.825senZONHOVEN
20.64AUZOU Jean-Baptiste50FRA1:25:354:04 14.792h50CLAMART
21.712DAMBLON Jonathan39BEL1:26:044:05 14.715h35
22.699DE BLAUWE Serge48BELHAC1:26:104:06 14.694h45TORHOUT
23.4FDEKETELAERE Annelies31BEL1:26:104:06 14.692damHOOGLEDE
24.559LE GRELLE Louis22BEL1:26:544:08 14.576senBOUSVAL
25.458THEUNISSEN Iwan45NLDERDINGER ALKOHO1:28:024:11 14.385h45LANDGRAAF
26.10SCHOONBROODT Jo67NLDMAASRUNNERS1:28:024:11 14.381h65MAASTRICHT
27.487VRANCKEN Roger45NLDCAESAR1:28:024:11 14.386h45MEERSSEN
28.148BECK Geoffrey43BELLES FOULÉE DU P1:28:024:11 14.385h40TIHANGE
29.207SPITS Alain44BELVIL CINSE1:28:034:11 14.386h40BEYNE HEUSAY
30.449BRANTS Philipe41BEL1:28:034:11 14.387h40PUTTE
31.380VANDEBEEK Patrick43BELAC BERTEM1:28:034:11 14.378h40AARSCHOT
32.280DEBAKKER Niki42BELNLT1:28:114:11 14.359h40KLUISBERGEN
33.652ACHTEN Jorg46BEL1:28:194:12 14.337h45
34.400VAN NIJLEN Bart55BELARAC1:28:244:12 14.322h55KASTERLEE
35.750BAERT Eric54BELDEDE TEAM1:28:254:12 14.323h50
36.220BERGMANN Peter22USA1:28:394:13 14.287senKL MAASTRICHT
37.174KEMPENEERS Cedric38BELTRIATHLIEGE1:28:504:13 14.256h35BEYNE-HEUSAY
38.335BULTOT Sylvain30BELLA THURE1:28:514:13 14.258senBARBENCON
39.473VAN BALLAER Stijn34BEL1:28:584:14 14.239senTIELEN
40.745YSABIE Piet51BELHRC1:29:134:14 14.194h50
41.22CLAUSSE Christophe35BEL1:29:134:14 14.197h35RUETTE
42.204CHARTOUF Rachid44BEL1:29:254:15 14.1610h40GENK
43.247OLSSON Mikael47SWESPORTIVAMENTE B1:29:394:15 14.128h45BRUXELLES
44.325LEGRAND Jean-Marc55BELTTF1:30:164:17 14.023h55JALHAY
45.41GUISSART Alain45BEL1:30:214:17 14.019h45BLEGNY
46.477LOURTIE Thibaut32BEL1:30:344:18 13.9810senAUBEL
47.292FAVRESSE Philippe49BELFLOT1:30:414:18 13.9610h45FLORENNES
48.560DEBRABANDERE Amaury48BELJOGGANS1:30:424:18 13.9511h45BERCHEM-SAINTE-AGATHE
49.700PIRSON Stephane49BELRUNNERS BERNEAU1:30:564:19 13.9212h45HEURE-LE-ROMAIN
50.228MINEUR Jean-Marc42BEL1:31:044:19 13.9011h40VERVIERS
DNF: abandon; DSQ: disqualifié; Vitesse en km/h
06/08/2020 - 01:09 - 676 Entrées
ChronoRace - Electronic Timing SPRL
http://www.chronorace.be

Page 1 / 14  
Maasmarathon de la Basse-Meuse
CAP Visé, 14/05/2017, BEL
Marathon - Après 21km
21.095km 
Catégorie
PosNrNomAgeIOCEquipeRéelTempsTkmMoy.RangNomLocalité
51.214WOOLF Alain56BELFCHA1:31:174:20 13.874h55LIMONT
52.25VAN ANDEL Henk52NLDTYPHOON1:31:184:20 13.865h50GORINCHEM
53.125DAEMS Mathieu37BELRFCL1:31:224:20 13.858h35DALHEM
54.489HEYDEN Christian53BEL-1:31:504:22 13.786h50ROCHEFORT
55.658HAAKMA Erik57BELSTB LANDGRAAF1:32:344:24 13.675h55
56.742DEKENS Danny57BEL1:32:574:25 13.626h55
57.367MARCHIONE Rosario60ITAJOGGING CLUB HE1:33:154:26 13.571h60VOTTEM
58.93NICOLAS Sébastien40BELJACO1:33:354:27 13.5312h40PRESGAUX
59.26SPITS Vincent51BELTNT1:33:484:27 13.497h50FRANC-WARET
60.302LANGENUS Freddy62BEL1:33:484:27 13.492h60KEERBERGEN
61.424WILLEMS Bart49BELGESHAALOPERS1:33:514:27 13.4913h45PUTTE
62.574FCARION Nathalie41BELJOGGING PLUS1:33:514:27 13.491f40WEMMEL
63.616HEYMAN Steven38BEL1:33:514:27 13.499h35NIEUWERKERKEN
64.566REBECK Ronny53BELBREAK1:33:554:28 13.488h50BRASSCHAAT
65.145SMYTH Duncan30IRL1:34:064:28 13.4511senABERDEEN
66.72DELDICQUE Jean-Simon28BEL1:34:094:28 13.4412senCOMINES
67.71CHALON Jacky54BELMOUNTAIN-BIQUES1:34:184:29 13.429h50BRAIBANT
68.728VAN REET Jan41BEL1:34:294:29 13.4013h40
69.293FRANGELLA Fabrizio43ITAJOGGING CLUB BR1:34:344:29 13.3914h40BRACQUEGNIES
70.223DENDAL Didier54BEL1:35:074:31 13.3110h50LIÈGE
71.241PERMANE Thierry41BEL1:35:084:31 13.3115h40MORLANWELZ
72.720MOYAUX Benoit51BEL1:35:104:31 13.3011h50
73.723VAN DEN BRIL Wouter41BEL1:35:114:31 13.3016h40
74.351YILDIZ Ali37DEU1:35:134:31 13.2910h35AACHEN
75.378SAMMY Timmermans52BEL1:35:154:31 13.2912h50HASSELT
76.561ARCHER Yves46BEL1:35:174:32 13.2814h45BONCELLES
77.65BODART Francis59BELARCH1:35:374:32 13.247h55ROCHEFORT
78.13BAL Glen36BEL1:35:474:33 13.2211h35WESTERLOO
79.618LACROIX Yves50BEL1:35:474:33 13.2213h50VISÉ
80.631KEMPENEERS Alan49BELDE BOSVRIENDEN1:35:474:33 13.2115h45TESSENDERLO
81.507XHROUET Alain48BEL1:35:474:33 13.2116h45AMAY
82.716DRISSI Toufix34BEL1:35:474:33 13.2113sen
83.552VAN VLIERDEN Jos46NLD1:35:474:33 13.2117h45EINDHOVEN
84.502DE VOGEL Dirk48BEL1:35:484:33 13.2118h45BURCHT
85.593KILESSE Mathieu28BELCHC1:35:484:33 13.2114senLIÈGE
86.595OOST Olivier32BELCHC1:35:484:33 13.2115senLIÈGE
87.388GYSELEN Eric42BEL1:35:524:33 13.2017h40BERCHEM
88.279DAEL, VAN John55NLDLOOPGROEP MEERH1:35:524:33 13.208h55EINDHOVEN
89.578VAN HERWIJNEN Marcel51NLD1:35:554:33 13.2014h50ELSLOO
90.107DE POTTER David29BELSPBO1:36:014:34 13.1816senLONDERZEEL
91.710JUNG Wil58BELACHILLES TOP KE1:36:104:34 13.169h55
92.346VERHAEGE Olivier37BELOLIVIER VERHAEG1:36:104:34 13.1612h35ZOMERGEM
93.650RUTTEN Sebastien35BEL1:36:264:35 13.1313h35
94.456VERFAILLIE Stefaan53BEL1:36:514:36 13.0715h50HERENTALS
95.634VANBRUSSELT Peter47BEL1:36:514:36 13.0719h45BEKKEVOORT
96.663SCHNEIDER Robert51BEL1:36:584:36 13.0616h50RAEREN
97.163DELANDSHEERE Lionel30BELTTF1:36:584:36 13.0517senJALHAY
98.630VANDEBROECK Stefan44BELETHIAS1:37:054:37 13.0418h40BORGLOON
99.653ROSENHOLTZ Sebastien31BELCOBRA1:37:124:37 13.0218sen
100.711WOJCIECH Slawiak50BEL1:37:174:37 13.0117h50
DNF: abandon; DSQ: disqualifié; Vitesse en km/h
06/08/2020 - 01:09 - 676 Entrées
ChronoRace - Electronic Timing SPRL
http://www.chronorace.be

Page 2 / 14  
Maasmarathon de la Basse-Meuse
CAP Visé, 14/05/2017, BEL
Marathon - Après 21km
21.095km 
Catégorie
PosNrNomAgeIOCEquipeRéelTempsTkmMoy.RangNomLocalité
101.606DE HEMPTINNE Baudouin21BEL1:37:244:37 13.0019senBRUXELLES
102.47DEMINNE Thierry57BELJE COURS POUR L1:37:444:38 12.9510h55ESTINNES
103.589OST Jeroen41BEL1:37:494:39 12.9419h40HEVERLEE
104.395OP DE BEECK Jürgen40BEL1:38:224:40 12.8720h40MERKSEM
105.581CLAES Jomme25BEL1:38:234:40 12.8720senHEVERLEE
106.515MONZÉE Jonathan35BELSPT1:38:234:40 12.8714h35TENNEVILLE
107.493MEEKERS Jeroen36BEL1:38:284:41 12.8515h35HOESELT
108.260ROUSSEAU David44BELAXA TEAM1:38:324:41 12.8521h40VILLE-EN-HESBAYE
109.316DAUTZENBERG Kim32BELSLIM BEWEGEN1:38:404:41 12.8321senMEEUWEN-GRUITRODE
110.446CERESSIAUX Hervé54BEL1:38:444:41 12.8218h50MEUX
111.705TERMINIA Piet46BEL1:38:454:41 12.8220h45
112.104CRAEN Hans41BEL1:38:534:42 12.8022h40BRUSSEL
113.629DORCHAIN Luc53BELJEM'ACTIVE1:39:004:42 12.7919h50MOUSTIER SUR SAMBRE
114.460TUK Henk53NLD1:39:084:42 12.7720h50BRIELLE
115.531GONSETTE Alexandre34BEL1:39:094:42 12.7722senLABUISSIÈRE
116.73PESTIAUX Grégory38BEL1:39:364:44 12.7116h35PESCHE
117.49VAN DER MEULEN Nathal51NLDACHILLES TOP KE1:40:144:46 12.6321h50MECHELEN
118.67NINITE Sébastien40BEL1:40:434:47 12.5723h40BEAUMONT
119.740HAMACHER Christian30BEL1:40:444:47 12.5723sen
120.366COLLING Jean-Yves31BEL1:40:444:47 12.5724senPETIT -RECHAIN
121.411FDEWINTER Emmanuelle26BELBOUFFIOLS1:40:454:47 12.563damBOUFFIOULX
122.343MICHOTTE Aurélien22BELALDES1:40:454:47 12.5625senHEUSY
123.353LUDDECKE David29FRALG TEAM1:40:454:47 12.5626senSTIRING WENDEL
124.180TULP Marijn35NLD1:40:454:47 12.5617h35SITTARD
125.103VANDENBUSSCHE Didier53BELDE STRESSKIKKER1:40:454:47 12.5622h50IEPER
126.40VAN WÉTERING Michael34BEL1:40:524:47 12.5527senDALHEM
127.259JOASSIN Bruno42BELMEETING POINT1:40:524:47 12.5524h40LENS-ST-REMY
128.690IMIK Sali46BELGEMSJOGGERS DIE1:40:554:48 12.5421h45
129.627LASCHEWSKI André40DEUTHEPEACERUNNER1:40:594:48 12.5325h40BRUXELLES
130.397PAPART Julien27BEL1:40:594:48 12.5328senEMBOURG
131.365BUCK Jeff52USA1:40:594:48 12.5323h50MUNICH
132.376FCHENEVIER Catherine44FRA1:41:104:48 12.512f40WATTIGNIES
133.236SIJBENS Ludo62BEL1:41:184:49 12.503h60ALKEN
134.294GUILLAUME Yves51BELJACO1:41:334:49 12.4624h50BAILEUX
135.382LOWET Kris30BEL1:41:404:50 12.4529senSINT-TRUIDEN
136.754WITHOFS Jan48BELBJC1:41:414:50 12.4522h45
137.165DELHEZ Claude57BELJOG'IN ATTITUDE1:41:464:50 12.4411h55BONCELLES
138.98DELABARRE Loic41FRA1:41:514:50 12.4326h40ST NICOLAS D ALIERMONT
139.691FCOLS Diana49NLDTEAM UP401:42:064:51 12.401f45HN SITTARD
140.126VAN OVERLOOP Gregory44BEL1:42:064:51 12.4027h40BELSELE
141.153VERDUYN Kurt56BELKAA GENT1:42:084:51 12.3912h55ZWIJNAARDE
142.483DURIEUX Rodolphe41BEL1:42:114:51 12.3928h40BEAUFAYS
143.381PATTYN Dominique48BEL1:42:184:51 12.3723h45INGELMUNSTER
144.409DE ROECK Filip29BEL1:42:404:52 12.3330senLEDEBERG
145.389HERMANS Rik40BEL1:42:584:53 12.2929h40BILZEN
146.623HUGÉ Thibaut34BELBELGIUM RUNNING1:43:004:53 12.2931senHÉVILLERS
147.721VANDENHEEDE Jean-Marie56BELGRIJSLOKE1:43:034:54 12.2813h55
148.166FKÉRIS Monique53BELJOG'IN ATTITUDE1:43:044:54 12.281f50BONCELLES
149.628SMET David41BEL1:43:074:54 12.2730h40VRASENE
150.541BROUWERS Arnout39NLD1:43:084:54 12.2718h35ROTTERDAM
DNF: abandon; DSQ: disqualifié; Vitesse en km/h
06/08/2020 - 01:09 - 676 Entrées
ChronoRace - Electronic Timing SPRL
http://www.chronorace.be

Page 3 / 14  
Maasmarathon de la Basse-Meuse
CAP Visé, 14/05/2017, BEL
Marathon - Après 21km
21.095km 
Catégorie
PosNrNomAgeIOCEquipeRéelTempsTkmMoy.RangNomLocalité
151.645ROSOUX Lionel43BEL1:43:134:54 12.2631h40NAMUR
152.646FIEREMANS Jan38BEL1:43:144:54 12.2619h35MOORSEL - AALST
153.758DUMONT DE CHASSART Alban22BEL1:43:154:54 12.2632senSINT-TRUIDEN
154.544FHABETS Eline21BEL1:43:154:54 12.264damSCHILDE
155.495CLAES Steven36BEL1:43:204:54 12.2520h35HERENTALS
156.443PEETERS Ivo55BELTJAK1:43:214:54 12.2514h55LICHTAART
157.330STERCKX Jan38BEL1:43:214:54 12.2521h35HEERS
158.28MARTIN Maxime30BEL1:43:224:54 12.2533senARLON
159.686SPINOSA Antony32BEL1:43:364:55 12.2234senOUPEYE
160.391LIJTEN Paul35NLD1:43:404:55 12.2122h35LIESHOUT
161.674KNAPEN Laurent60BELJOGIN'ATTITUDE1:43:414:55 12.214h60LIÈGE
162.713HALAIN Jean-Philippe42BEL1:43:424:55 12.2132h40MARCHIN
163.547ANAF Christophe53BELNONE1:43:444:56 12.2025h50STROMBEEK
164.158CONINX Carl29BEL1:43:454:56 12.2035senWESTMALLE
165.21DETALLE Pierre-Yves35BEL1:43:454:56 12.2023h35MELEN
166.92JANSSEN Erik45NLD1:43:474:56 12.2024h45MAASTRICHT
167.291ESPOSITO Vincenzo43ITAJOGGING CLUB BR1:43:484:56 12.1933h40BRAY
168.271KURZ Xavier59BEL1:43:544:56 12.1815h55LIÈGE
169.558VEUGEN Frank52NLD1:43:584:56 12.1826h50MUNSTERGELEEN
170.522COOMANS Gert48BEL1:43:584:56 12.1825h45KOERSEL
171.218KUCKELKORN Stefan44DEUAACHENER TG1:44:014:56 12.1734h40WÜRSELEN
172.622DEBROUX Christophe35BELBELGIUM RUNNING1:44:044:56 12.1624h35FOREST
173.751RABHIOU Oussama28BEL1:44:044:56 12.1636sen
174.435BROUWERS Jan56NLD1:44:044:56 12.1616h55BRUNSSUM
175.364SIMON Bernard51BELKTB1:44:044:56 12.1627h50WARZEE
176.392MARTENS Bert66NLD1:44:044:56 12.162h65BAARLO
177.637JUNGELS Quentin25BEL1:44:054:57 12.1637senETALLE
178.200CHARPENTIER Gilles53FRAUS MÉTRO TRANSP1:44:054:57 12.1628h50PARIS
179.680KOHLEN Peter55NLD1:44:054:57 12.1617h55
180.714SWENNEN Joeri47BEL1:44:054:57 12.1626h45
181.14DE MUYNCK Ivan62BEL1:44:054:57 12.165h60URSEL
182.469FRICKE Matthias54DEUMATTHIAS FRICKE1:44:054:57 12.1629h50PULHEIM
182.604PIRON Fréderic48BEL1:44:054:57 12.1627h45HERSTAL
184.452VERJANS Yves42BEL1:44:054:57 12.1635h40HOESELT
185.219LUPPENS Dirk50BELDOORENLOPERS1:44:064:57 12.1630h50MERCHTEM
186.189PIRLOT Jean-Francois35BEL1:44:064:57 12.1625h35LISOGNE
187.649DELERS Clément29BEL1:44:064:57 12.1638senSELOIGNES
188.396PAMFILIE Paul39ROU1:44:074:57 12.1626h35BLANKENBERGE
189.685DEFAERE Olivier48BEL1:44:084:57 12.1628h45
190.251EVERAERTS Peter46BELOEVERLOPERS1:44:104:57 12.1529h45RILLAAR
191.668BOUSSU Stephan54BEL1:44:104:57 12.1531h50ALKEN
192.535VERVENNE Tom22BEL1:44:104:57 12.1539senGALMAARDEN
193.253FICHET Laurent44BELJACO1:44:104:57 12.1536h40BAILEUX
194.341DIERIKS Jeroen32BELALDES1:44:104:57 12.1540senPUURS
195.425VANDEKERCKHOVE Dirk58BELDIRK VANDEKERCK1:44:114:57 12.1518h55IEPER
196.428BOONEN J.M.42BELDP WORLD LIÈGE1:44:154:57 12.1437h40HACCOURT
197.442SMEYERS Michael43BELSMEYERS1:44:164:57 12.1438h40ELSENE
198.520BERTE Miguel46BEL1:44:174:57 12.1430h45AUBANGE
199.679VAN DE WEERDT Theow32NLDLIBERT RUNNERS 1:44:174:57 12.1441senNE ECKELRADE
200.573FJOHNSON Mirja41FIN1:44:234:57 12.133f40RIXENSART
DNF: abandon; DSQ: disqualifié; Vitesse en km/h
06/08/2020 - 01:09 - 676 Entrées
ChronoRace - Electronic Timing SPRL
http://www.chronorace.be

Page 4 / 14  
Maasmarathon de la Basse-Meuse
CAP Visé, 14/05/2017, BEL
Marathon - Après 21km
21.095km 
Catégorie
PosNrNomAgeIOCEquipeRéelTempsTkmMoy.RangNomLocalité
201.109LIGNEUIL Laurent44FRALUNEL ATHLÉTISM1:44:244:57 12.1339h40LUNEL
202.79FROYEN Guy54BEL1:44:264:58 12.1232h50HERK-DE-STAD
203.258LESNIK René59FRA1:44:264:58 12.1219h55LEWARDE
204.231STIERS Olivier37BEL1:44:264:58 12.1227h35GERPINNES
205.226SEYNAEVE Benoit42BELRC NAM1:44:414:58 12.0940h40FERNELMONT
206.327OSWALD Stefan54ITASUEDTIROLER LAU1:44:454:58 12.0833h50CALDARO
207.84GERADTS Alex49NLD1:44:584:59 12.0631h45ARNHEM
208.694URBANI Jean-Marc49BELSER ATHL1:45:054:59 12.0532h45OUGRÉE
209.689FJOACHIMS Anita44BEL1:45:074:59 12.044f40
210.348DE PAOLIS Julien26BEL1:45:165:00 12.0242senSAINT-NICOLAS
211.118CHARLIER Coco30BEL1:45:165:00 12.0243senCHAINEUX
212.511KRAMER Daniel41HUN1:45:175:00 12.0241h40SAINT GILLES
213.693GRASMAN Hermen53NLDATC'751:45:245:00 12.0134h50BA HAREN
214.58ANDRE Gregory34BEL1:45:255:00 12.0144senSAINT DENIS
215.412GEELEN Peter48BELSLIM BEWEGEN1:45:265:00 12.0133h45BREE
216.557FHAAN Severine41BEL1:45:305:01 12.005f40DAHL
217.431PYPE Benedikt40BELAC STADEN1:45:305:01 12.0042h40WESTROZEBEKE
218.437LODENS Bram31BEL1:45:415:01 11.9845senOUDENAARDE
219.602NGIRIMANA Maurice33BELAC STADEN1:45:495:01 11.9646senWESTROZEBEKE
220.203FBULCKE Katleen41BELMACW-DIKSMUIDE1:45:575:02 11.956f40DIKSMUIDE
221.457MENKEN Joris Jan45NLD1:45:585:02 11.9534h45NOORDWIJK
222.275FLETCHER Michael34USA1:46:025:02 11.9447senHEVERLEE
223.677SANDEN Dirk46DEUTG NEUSS1:46:025:02 11.9435h45
224.338HAKIR Jean-Marc42BEL1:46:075:02 11.9343h40SAINT-REMY
225.30MOUCHETTE Cédric32BELTRAIL 4 FUN1:46:085:02 11.9348senNEUFCHÂTEAU (LG.)
226.372LEJEUNE Bart52BEL1:46:105:02 11.9235h50LANDEN
227.369HEYNS Xavier43BELJIA1:46:125:03 11.9244h40HERMÉE
228.361DESCHUYFFELEER Sten30BEL1:46:155:03 11.9149senAARSCHOT
229.704KNAEPEN Luc49BEL1:46:155:03 11.9136h45HERK-DE-STAD
230.737BERGMANS Alexander30BEL1:46:205:03 11.9050sen
231.675HILDERSON Luc65BEL1:46:205:03 11.903h65WONCK
232.196GALLUCCIO Gaël32BELJCPMF GENAPPE1:46:305:03 11.8851senLOUPOIGNE
233.439HUYSENTRUYT Christ44BELAVI1:46:335:04 11.8845h40HULSTE
234.654FORET Michael34BEL1:46:355:04 11.8852sen
235.564LAUREYS Tom50BEL1:46:405:04 11.8736h50ASSENEDE
236.240MONKERHEY Frans61BEL1:46:455:04 11.866h60POPERINGE
237.186VANDENBROUCKE Guido60BEL1:46:455:04 11.867h60WOUMEN
238.707MARIQUE Jean-Christophe46BEL1:46:505:04 11.8537h45BLEGNY
239.516RENARD Raphael31BELSPT1:46:505:04 11.8553senCHAMPLON
240.501APPERMONT Bert41BEL1:46:505:04 11.8546h40DILSEN-STOKKEM
241.749THIRION Jean-Francois53BELMJ SPORT1:47:105:05 11.8137h50
242.450VAN EYCK Maarten37BEL1:47:185:06 11.8028h35HERK-DE-STAD
243.738SCHEPKENS Yves44BELGROMME RUNNERS1:47:295:06 11.7847h40
244.267DIERICKX Joël42BEL1:47:345:06 11.7748h40NIVELLES
245.305RYCKEBOER Noah34BELEENDRACHT AALST1:47:445:07 11.7554senLONDERZEEL
246.521FBOECKX Liesbet39BEL1:47:535:07 11.731f35WESTERLO
247.426DE CLERCQ Guido54BEL1:47:535:07 11.7338h50LEDE
248.229LIENARD Valéry41BELBPOST1:47:585:08 11.7249h40QUAREGNON
249.176DUCEP Olivier50FRA1:48:005:08 11.7239h50AMNEVILLE
250.48FCOURBET Annick52BEL1:48:015:08 11.722f50FONTAINE LEVEQUE
DNF: abandon; DSQ: disqualifié; Vitesse en km/h
06/08/2020 - 01:09 - 676 Entrées
ChronoRace - Electronic Timing SPRL
http://www.chronorace.be

Page 5 / 14  
Maasmarathon de la Basse-Meuse
CAP Visé, 14/05/2017, BEL
Marathon - Après 21km
21.095km 
Catégorie
PosNrNomAgeIOCEquipeRéelTempsTkmMoy.RangNomLocalité
251.44FVANDECRUYS Lesley38BEL1:48:025:08 11.722f35GEEL
252.667VAN ROOY Koen46BEL1:48:045:08 11.7138h45HASSELT
253.519CHARLIER Benoit31BELSTP1:48:065:08 11.7155senTENNEVILLE
254.513WATHELET Gilles23BELSPT1:48:065:08 11.7156senARVILLE
255.264HERBORT Michael37DEUTIDE RUNNERS HA1:48:125:08 11.7029h35HAMBURG
256.586THOONEN Erik59BELGEMSJOGGERS1:48:125:08 11.7020h55DIEPENBEEK
257.491LISMONDE Dimitri22BEL1:48:135:08 11.7057senLIÈGE
258.619BASTIN Noemy25BEL1:48:195:09 11.6958senLA HESTRE
259.209BARENDSE Harry68NLDOSS-VOLO1:48:205:09 11.684h65DEN BOSCH
260.59MIGNON Fabrice42BELGTC1:48:255:09 11.6750h40SAINT DENIS
261.62PIRON Damien43BELPIRON DAMIEN1:48:265:09 11.6751h40BRUXELLES
262.556FBEMELMANS Eva54BELMPW/HJM1:48:345:09 11.663f50BARCHON
263.550COMMARMOND Gilles63FRA1:48:435:10 11.648h60PERONNAS
264.734TOUSSAINT Sebastien39BEL1:48:455:10 11.6430h35
265.419MOLS David30BEL1:48:535:10 11.6359senOUD-TURNHOUT
266.173VANCAUWENBERGHS Guy54BEL1:48:555:10 11.6240h50BEERZEL
267.210WATAR Francis43BELBC RETINNE1:48:575:10 11.6252h40RETINNE
268.246COLLIGNON Gilles29BELJSR TEAM1:48:575:10 11.6260senSAINT-REMY
269.94HARDY Geoffrey44BEL1:49:015:11 11.6153h40OUPEYE
270.249NARDOZI Claudio60ITA1:49:015:11 11.619h60LIEGE
271.736OLEFS Antonino21BELJIA1:49:035:11 11.6161sen
272.472EVRARD Benjamin18BEL1:49:045:11 11.6162senLIÈGE
273.459KOLONGO Alain33BELWALAMIS1:49:105:11 11.6063senWARSAGE
274.671PROPS John53NLDRAVZL1:49:155:11 11.5941h50ELSLOO
275.505STOLTZ Michael52DEU1:49:165:11 11.5842h50THE HAGUE
276.216WIESNER Alexander29DEU1:49:405:12 11.5464senBRUXELLES
277.536DOLMANS Antoine25BEL1:49:495:13 11.5365senLA LOUVIERE
278.648FOGUENNE Olivier46BELEXPERT-COMPTABL1:49:525:13 11.5239h45STAVELOT
279.717LANTIN Damien26BEL1:50:015:13 11.5166sen
280.244RUELLAN Guirec29FRA1:50:075:14 11.5067senLIÈGE
281.402FDIRIX Dora56BELDCLA HALEN OVER1:50:075:14 11.501f55DONK
282.614PIERAERT Michel47BEL1:50:085:14 11.4940h45GHISLENGHIEN
283.568GESQUIÈRE Jo43BEL1:50:125:14 11.4954h40GRIMBERGEN
284.752FPANS Marine27BEL1:50:135:14 11.495dam
285.342CSIK Nicolas39BELALDES1:50:135:14 11.4831h35LIÈGE
286.137BAILEY Tom38GBR1:50:135:14 11.4832h35HAILSHAM
287.709VREULS John51BELACHILLES TOP KE1:50:195:14 11.4843h50
288.358NEVENS Christophe42BEL1:50:215:14 11.4755h40FOURON LE COMTE
289.324KAYSER Jean53BELRUNPRO1:50:215:14 11.4744h50PROFONDEVILLE
290.467VERBRUGGEN Xavier54BEL1:50:235:14 11.4745h50ZULTE
291.594BOULTON Philippe49BELCHC1:50:475:16 11.4341h45NEUFCHÂTEAU
292.743LENNERTS Eric40BEL1:50:545:16 11.4156h40
293.262GROSS-ALT Werner61DEUDJK RASENSPORT 1:50:585:16 11.4110h60AACHEN
294.66DE LEE Johan48BEL1:51:045:16 11.4042h45ZWIJNDRECHT
295.669NÜSSER Jürgen45DEUMETA1:51:065:16 11.3943h45KELMIS
296.657COMYNS Gerard49IRLAV WEERT1:51:135:17 11.3844h45WEERT
297.656FFRENKEN Sandra44NLDAV.WEERT1:51:135:17 11.387f40LE WEERT
298.139MATHEW WynnGBR1:51:155:17 11.381xxxHELLINGLY, HAILSHAM
299.116CHAVANON Franck46FRA1:51:175:17 11.3745h45TALLARD
300.670MULLER Michael45DEUMETA1:51:215:17 11.3746h45
DNF: abandon; DSQ: disqualifié; Vitesse en km/h
06/08/2020 - 01:09 - 676 Entrées
ChronoRace - Electronic Timing SPRL
http://www.chronorace.be

Page 6 / 14  
Maasmarathon de la Basse-Meuse
CAP Visé, 14/05/2017, BEL
Marathon - Après 21km
21.095km 
Catégorie
PosNrNomAgeIOCEquipeRéelTempsTkmMoy.RangNomLocalité
301.423SCIULLO Frédéric34BELFAMILY RUNNERS 1:51:215:17 11.3768senWANFERCÉE-BAULET
302.326MOZIN Michaël37BELWALAMIS1:51:245:17 11.3633h35WARSAGE
303.662HERMANS Jean64BEL1:51:305:18 11.3511h60LANAKEN
304.301KRAINZ Alexander47BEL1:51:345:18 11.3447h45OUDERGEM
305.715BJORN Nachtegaele30BEL1:51:355:18 11.3469sen
306.131DEMEULENAERE Eric51BEL1:51:365:18 11.3446h50AARTSELAAR
307.314CLOSJANS Raphael39BEL1:51:395:18 11.3434h35CIPLET
308.230OGER Stéphane39BELSTÉPHANE OGER1:51:425:18 11.3335h35RACOUR
309.607LAMBRICHTS Robert58BELGEMSJOGGERS DIE1:51:435:18 11.3321h55DIEPENBEEK
310.537MOONEN Stefan41BEL1:51:435:18 11.3357h40LANAKEN
311.666DARCIS Frederic44BEL1:51:465:18 11.3358h40WIHOGNE
312.282VINCKE Kevin24BEL1:51:495:19 11.3270senSINT-PIETERS-LEEUW
313.651DEMOORTELE Johan56BEL1:51:495:19 11.3222h55
314.15HOSTENS Ivan54BEL1:51:495:19 11.3247h50KORTEMARK
315.254DENEUMOSTIER Jérôme32BEL1:51:505:19 11.3271senHUY
316.455WINTGENS Christophe50BELLES ARACH'PIEDS1:51:505:19 11.3248h50ARLON
317.583HERMANS Peter49BEL1:51:505:19 11.3248h45WEZEMBEEK-OPPEM
318.643FJANNIS Claudia29BEL1:51:505:19 11.326damREKEM
319.336PIETERS Tom44BEL1:51:505:19 11.3259h40BRUXELLES
320.331VOUÉ Thierry44BELJCPMF GENAPPE1:51:505:19 11.3260h40BAISY-THY
321.441NICOLAÏ Robert55BEL1:51:505:19 11.3223h55MONS
322.655OLIJSLAGERS Rudi45BEL1:51:515:19 11.3249h45
323.150GOUTARD Philippe59FRASAINT MARTIN AT1:51:555:19 11.3124h55BOULOGNE SUR MER
324.273SOKOLOWSKI Kristof28BEL1:51:575:19 11.3172senBEVERST-BILZEN
325.80LANDSTRA Martin47NLD1:52:055:19 11.2950h45BOXMEER
326.191VAN BRUGGEN Michel55BELLIEREMANLOPERS1:52:055:19 11.2925h55OUD-TURNHOUT
327.565VANAKEN Patrick56BELGEMSJOGGERS DIE1:52:055:19 11.2926h55DIEPENBEEK
328.206LOOS Jeroen23BEL1:52:065:19 11.2973senMEEUWEN-GRUITRODE
329.33BEFFORT Marc55LUXCACE1:52:095:19 11.2927h55KRAAINEM
330.190FTERNISIEN Adeline37FRAH2R1:52:145:20 11.283f35HERLIES
331.322FRAUSSEN Roeland45BEL1:52:145:20 11.2851h45LANAKEN
332.399ROY Sebastien45BEL1:52:155:20 11.2852h45BRUXELLES
333.682VAN DEN ESSEN Tom50NLD1:52:165:20 11.2749h50
334.463HEYMANS Stephane43BELSTEPHANE HEYMAN1:52:175:20 11.2761h40BRUSSELS
335.492OSTEUX Geert48BELMACW1:52:205:20 11.2753h45LEKE
336.475HIROI Hideaki51JPN1:52:225:20 11.2650h50MAASTRICHT
337.181FAVERMAETE Marleen42BEL1:52:355:21 11.248f40TIENEN
338.759VERHALLEN Aernout33BEL1:52:375:21 11.2474sen
339.554WINKEL Bart48BELATLA1:52:395:21 11.2454h45MAASMECHELEN
340.339RAPPE Patrick49BELDEVA MARATHONTE1:52:405:21 11.2455h45HEIST-AAN-ZEE
341.374FCOCHETEUX Pascale49BEL1:52:475:21 11.222f45VITRIVAL
342.429NIJS Eric51BELDP WORLD LIÈGE1:52:515:21 11.2251h50HERSTAL
343.676VOBIS AndreasDEUTG NEUSS1:52:595:22 11.202xxx
344.701FSCHOUTEDEN Magda56BEL1:53:015:22 11.202f55
345.108CONESSA Herve54FRALUNEL ATHLETISM1:53:135:22 11.1852h50LUNEL
346.484BEAUJEAN Erik48BEL1:53:165:23 11.1856h45ST -TRUIDEN
347.408DE GREGORIO Fabrice44BEL1:53:195:23 11.1762h40ANGLEUR
348.624FPERMENTIER Maria63BEL1:53:205:23 11.171f60BORNEM
349.569VAN BEL Tom50BELSPARTA BORNEM1:53:205:23 11.1753h50BORNEM
350.639HERMSEN Walter45NLD1:53:215:23 11.1757h45BAARN
DNF: abandon; DSQ: disqualifié; Vitesse en km/h
06/08/2020 - 01:09 - 676 Entrées
ChronoRace - Electronic Timing SPRL
http://www.chronorace.be

Page 7 / 14  
Maasmarathon de la Basse-Meuse
CAP Visé, 14/05/2017, BEL
Marathon - Après 21km
21.095km 
Catégorie
PosNrNomAgeIOCEquipeRéelTempsTkmMoy.RangNomLocalité
351.146CAVAGNA Olivier48FRAH2R - HERLIES R1:53:245:23 11.1658h45NEUVE CHAPELLE
352.755ABAZ Lhassan40BEL1:53:245:23 11.1663h40
353.127GANHY Ganhy56BEL1:53:305:23 11.1528h55ROCHEFORT
354.85LOVELOCK David46GBR1:53:315:23 11.1559h45LONDON
355.757NOPERE Stephane53BEL1:53:335:23 11.1554h50
356.337FLECOCQ Céline35BEL1:53:335:23 11.154f35LA REID
357.600RENAULD Michel41BELFNO61:53:355:24 11.1464h40WARSAGE
358.490PASCAL Vlaemminck52BEL1:53:395:24 11.1455h50JAUCHE
359.440BENNARDO Michel49BELBELGORUN1:53:475:24 11.1260h45FLORIFFOUX
360.78MOLS Frank57BEL1:53:475:24 11.1229h55ARENDONK
361.572PEETERS Louis52BELALV1:53:555:25 11.1156h50BEERSE
362.317DEMEULENAERE Wouter49BEL1:53:585:25 11.1161h45LIER
363.233MELOTTE Marc51BELMARC DE NAMUR1:54:045:25 11.1057h50BIOUL
364.208FDODEIGNE Delphine36BEL1:54:055:25 11.095f35LIEGE
365.198SNELLINX Maikel27BEL1:54:085:25 11.0975senHERDEREN
366.739CLAEREBOUDT Jan55BELLOOPCLUB IRENE1:54:095:25 11.0930h55
367.133MAFOY Romain38FRASAINT MARTIN AT1:54:165:25 11.0836h35OUTREAU
368.587FIÉVEZ Benjamin44BEL1:54:205:26 11.0765h40BRUXELLES
369.548GILIS Stephane60BEL1:54:215:26 11.0712h60WONCK
370.525FJODOGNE Anne36BELOUFTI TEAM1:54:225:26 11.076f35VISÉ
371.563FWYNN Danielle37GBR1:54:265:26 11.067f35HELLINGLY
372.91ROTTIERS Walter63BEL1:54:275:26 11.0613h60DEURNE
373.588MOONEN Ferry50NLDFERRY MOONEN1:54:335:26 11.0558h50EERSEL
374.576DE JONGHE Bert36BEL1:54:365:26 11.0437h35DIEST
375.303FLEONARD Anne48BELJCPMF1:54:365:26 11.043f45BOUSVAL
376.318DEXTERS Anton38BEL1:54:365:26 11.0438h35RILLAAR
377.500FKOSE Cigdem39BEL1:54:375:26 11.048f35RILLAAR
378.287CROMHEECKE David40BEL1:54:375:26 11.0466h40OOSTAKKER
379.102FPASCAL Murielle44FRALUNEL ATHLETISM1:54:385:27 11.049f40MUDAISON
380.553PANHUIZEN Jeroen47NLD1:54:435:27 11.0362h45EERSEL
381.82BEMELMANS Frederic46BEL1:54:585:27 11.0163h45GREZ-DOICEAU
382.719AERTS Alain53BEL1:55:055:28 11.0059h50
383.270JACQUES Thierry48BEL1:55:065:28 11.0064h45GOUVY
384.582BEAUDUIN Victor21BEL1:55:105:28 10.9976senHALLE
385.344HUNG Jui-Min34TWN1:55:165:28 10.9877senLOUVAIN-LA-NEUVE
386.149FRICHARD Christine51FRASAINT MARTIN AT1:55:205:29 10.984f50BOULOGNE SUR MER
387.692KROLS Sammy50BEL1:55:205:29 10.9760h50ZONHOVEN
388.352JURKOWSKI Raphael41BEL1:55:455:30 10.9467h40VILLERS-L'EVEQUE
389.266LAVIGNE Fabian46BEL1:55:505:30 10.9365h45VISÉ
390.242FDROMELET Bérangère49BELSPTWAVRE1:55:545:30 10.924f45WAVRE
391.532LOCKMAN Denis33BELJOG'IN BASTOGNE1:56:005:30 10.9178senBASTOGNE
392.660NIESTE André57NLD1:56:095:31 10.9031h55LANAKEN
393.418MARINELLI Gaetano57ITABOUFFIOLS1:56:145:31 10.8932h55CHATELET
394.612LEROY Bernard47BEL1:56:145:31 10.8966h45CINEY
395.213ALBERS Frédéric51BEL1:56:355:32 10.8661h50EGHEZÉE
396.407CHARLIER Pascal54BEL1:56:485:33 10.8462h50VEDRIN
397.498DU PARC Charles21BEL1:56:515:33 10.8379senUCCLE
398.762FCLAES Karen30BELKC-TEAM1:56:515:33 10.837dam
399.224LORGE Pascal48BELTEAM MARCEL1:56:575:33 10.8267h45ANDENNE
400.121DENIS Olivier36BELMFC HENNUYERES1:56:575:33 10.8239h35HENNUYERES
DNF: abandon; DSQ: disqualifié; Vitesse en km/h
06/08/2020 - 01:09 - 676 Entrées
ChronoRace - Electronic Timing SPRL
http://www.chronorace.be

Page 8 / 14  
Maasmarathon de la Basse-Meuse
CAP Visé, 14/05/2017, BEL
Marathon - Après 21km
21.095km 
Catégorie
PosNrNomAgeIOCEquipeRéelTempsTkmMoy.RangNomLocalité
401.741CRICKBOOM Arnaud28BEL1:57:025:33 10.8280senTHEUX
402.730LUYTEN Willy72BEL1:57:055:33 10.811h70OUD-TURNHOUT
403.250DAVID Patrick54BELLES IDYLLES1:57:125:34 10.8063h50MALMEDY
404.551DATEMA Coos59NLD1:57:135:34 10.8033h55ZUIDHORN
405.591NICOLAS Francis49BELCHC1:57:145:34 10.8068h45WARSAGE
406.479PAULY Stefan54BEL1:57:155:34 10.8064h50RIEMST
407.124VANDECAETSBEEK Joeri33BEL1:57:155:34 10.8081senOPITTER
408.633FVANTOURNHOUT Eva31BEL1:57:165:34 10.798damHASSELT
409.105BIBIONE Domenico42ITA1:57:195:34 10.7968h40MACHELEN
410.626GUNTER Van De Velde55NLDVAN DE VELDE GU1:57:235:34 10.7834h55AVERBODE
411.445DUMONT Valentin28BEL1:57:305:35 10.7782senLINCENT
412.405CAPORALE Julien29BELLES BOUFFIOLS1:57:315:35 10.7783senCHATELET
413.63WOLTÈCHE Hervé35BEL1:57:325:35 10.7740h35FLERON
414.232COOPMAN Jonas28BEL1:57:345:35 10.7784senZWEVEZELE
415.403BARBIER Hugues45FRARACING CLUB ARR1:57:415:35 10.7669h45SAINT LAURENT BLANGY
416.724BRUGGEMAN Pieter-Jan26BELZATOPEK1:57:505:36 10.7485sen
417.527DEVOOGHT Emmanuel28BEL1:57:515:36 10.7486senNAMUR
418.384STEFANO Gianni39BEL1:57:535:36 10.7441h35RIEMST
419.211LÉONARD Stéphane44BEL1:57:555:36 10.7369h40NOISEUX
420.37DEPREZ Thomas42BEL1:57:585:36 10.7370h40COURT-ST-ETIENNE
421.215LEQUIEN Dominique46FRACE ALSTOM1:57:595:36 10.7370h45QUIEVRECHAIN
422.644GIAMBATTISTA Maxime40BEL1:58:035:36 10.7271h40ROUX
423.579ROBA Alexandre50BEL1:58:035:36 10.7265h50WATERLOO
424.202FCARDINAALS Renee23NLD1:58:045:36 10.729damAMMERZODEN
425.252CLOES Raphael37BEL1:58:045:36 10.7242h35CLERMONT
426.162DESIMPELAERE Lode55BEL1:58:045:36 10.7235h55ANTWERPEN
427.347DELVAUX Colin34BEL1:58:045:36 10.7287senTHIMISTER
428.748RENNESON Gilles36BEL1:58:185:37 10.7043h35
429.508FPETERS Marleen61BEL1:58:265:37 10.692f60BILZEN
430.438FHUBRECHTS Marij62BELMARIJ HUBRECHTS1:58:265:37 10.693f60BILZEN
431.545SCHIDLO Eric38BELKNAUF1:58:275:37 10.6944h35VISÉ
432.744PIES Christoph47BELHAMICH RUNNERS1:58:315:38 10.6871h45
433.542KLEIJWEG Theo69NLDIJSSELRUNNERS1:58:325:38 10.685h65CAPELLE AAN DEN IJSSEL
434.480LEJEUNE David43BEL1:58:335:38 10.6872h40STEMBERT
435.592REGNIER Didier50BELCHC1:58:335:38 10.6866h50DISON
436.470CORIJN Marc50NLD1:58:335:38 10.6867h50HULST
437.393MEERTENS Rene53NLDATLA1:58:425:38 10.6668h50BERG EN TERBLIJT
438.526LAARHOVEN Michaël48NLD1:58:425:38 10.6672h45NEERHAREN
439.753DETRIXHE Christophe41BELWAC1:58:435:38 10.6673h40
440.89FFOUGÈRE Véronique45FRALA DREAMTEAM DE1:58:445:38 10.665f45MARSILLARGUES
441.2072FVALLOIS Alicia36FRALA DREAMTEAM DE1:58:455:38 10.669f35MARSILLARGUES
442.377LEMOINE Francesco41BEL1:58:455:38 10.6674h40BUZET
443.227DE BECKER Guy64BEL1:58:455:38 10.6614h60HEINSTERT-ATTERT
444.185MINNE Patrice49BELJCPMFG1:58:465:38 10.6673h45GLABAIS
445.360NICOLAS Baron33BEL1:58:465:38 10.6688senMARCHIN
446.427HEYNEN Fréderick43BELDP WORLD LIÈGE1:58:485:38 10.6675h40RICHELLE
447.117COSTANZO Erasmo34BELBOUFFIOLS1:58:485:38 10.6589senVILLERS POTERIE
448.416LAMBOTTE Sebastien42BEL1:58:485:38 10.6576h40HEURE-LE-ROMAIN
449.555MERKEN Vally55BEL1:58:495:38 10.6536h55HOESELT
450.577FMOUCHAERS Stefanie37BEL1:58:495:38 10.6510f35HOESELT
DNF: abandon; DSQ: disqualifié; Vitesse en km/h
06/08/2020 - 01:09 - 676 Entrées
ChronoRace - Electronic Timing SPRL
http://www.chronorace.be

Page 9 / 14  
Maasmarathon de la Basse-Meuse
CAP Visé, 14/05/2017, BEL
Marathon - Après 21km
21.095km 
Catégorie
PosNrNomAgeIOCEquipeRéelTempsTkmMoy.RangNomLocalité
451.488PIERRE Brasseur25BEL1:58:495:38 10.6590senVEDRIN
452.497FRANÇOIS Xavier28BELECOLE ROYALE MI1:58:505:38 10.6591senJUPRELLE
453.307VAN GRONINGEN Gertjan53NLD1:58:505:38 10.6569h50COTHEN
454.95LEGROS Francis48BEL1:58:505:38 10.6574h45SOUMAGNE
455.611KNOCKAERT Pascal45BELJCPMF RAMILLIES1:58:505:38 10.6575h45RAMILLIES
456.735JAMIN Dominique34BELJOG'IN ATTITUDE1:58:505:38 10.6592sen
457.321FABRY Léon62BEL1:58:505:38 10.6515h60WELKENRAEDT
458.453VAN NISTELROOIJ Ruud67NLD1:58:505:38 10.656h65'S-HERTOGENBOSCH
459.510PEETES Gustaaf52BELOEVERLOPERS1:58:505:38 10.6570h50TESTELT
460.410DEDRY Christophe38BEL1:58:505:38 10.6545h35LIÈGE
461.609BOSSELER André51BELARACH'PIEDS1:58:505:38 10.6571h50ARLON
462.140FTEUNCKENS Nathalie30BEL1:58:515:39 10.6510damMEERHOUT
463.263COLLIN Jordan26BEL1:58:515:39 10.6593senWARSAGE
464.729DOPS Ghislain62BEL1:58:535:39 10.6516h60
465.57VANOVERBERGHE Régis41BELLEG'S GO1:58:575:39 10.6477h40GESVES
466.733FLEROY Carol56BEL1:59:065:39 10.633f55
467.106FÉLIX Manu52BEL1:59:125:39 10.6272h50STROMBEEK-BEVER
468.300KOHLEN Christoph42BEL1:59:135:40 10.6278h40BIERGES
469.156LEPAGE Greg40BELLES JOB'S1:59:185:40 10.6179h40AMAY
470.695MUSSELY Filip56BEL1:59:225:40 10.6037h55BAVIKHOVE
471.53FGODFRIN Stéphanie47BEL1:59:225:40 10.606f45ROCHEFORT
472.512GILLET Patrick53BELSPT1:59:305:40 10.5973h50TENNEVILLE
473.494DE WIT Chris56BEL1:59:345:41 10.5938h55HASSELT
474.466DETRAUX François36BEL1:59:445:41 10.5746h35NYON
475.638DE SAEDELEER David36BEL1:59:445:41 10.5747h35FERNELMONT
476.496LEGROS Ghislain46BELMOTIVÉ DU MARDI1:59:475:41 10.5776h45CHARNEUX
477.120FLEGROS Muriel41BEL1:59:475:41 10.5710f40HERVE
478.370DESGOUTTES François54FRA2:00:195:43 10.5274h50LUNEL
479.571HENRIOULLE Jérôme22BEL2:00:195:43 10.5294senCHÂTELET
480.194LIMBOURG Marc55BEL2:00:255:43 10.5139h55LUTTRE
481.584NELHIEBEL Gyula53BEL2:00:265:43 10.5175h50VERVIERS
482.499FDE BRABANDT Marijke44BEL2:00:295:43 10.5111f40HAMME
483.647GEERT Jacobs51BEL2:00:305:43 10.5176h50MOERZEKE
484.205LEFEVER Filip50BEL2:00:325:43 10.5077h50DIKSMUIDE
485.383SIPERS Henk62NLDAV VETERANEN NE2:00:405:44 10.4917h60MAASTRICHT
486.101BERLEMONT Jeoffroy37BELZATAC NAMUR2:00:445:44 10.4848h35SAINT-SERVAIS
487.635HOGGE Francois30BEL2:00:525:44 10.4795senMORTROUX
488.255POOT Henri55BEL2:01:015:45 10.4640h55HOUWAART
489.687DAENEN Danny42BEL2:01:025:45 10.4680h40
490.514ANDRÉ Frédéric41BELSPT2:01:085:45 10.4581h40JOURNAL
491.610MARECHAL Mauro39BEL2:01:195:46 10.4349h35LENNIK
492.503DEBIEVE Alain50FRAALAIN DEBIEVE2:01:235:46 10.4378h50LUNEL
493.672OTS Yves59BEL2:01:285:46 10.4241h55
494.237VAN ACKER Thierry58FRA2:01:385:46 10.4142h55VILLENEUVE D'ASCQ
495.155CHARLIER Mathieu39BELLES JOB'S2:01:475:47 10.3950h35AMPSIN
496.509FLOMBAERT Kathy45BEL2:01:505:47 10.397f45BORNEM
497.506VAN GERWEN Gert30BEL2:01:505:47 10.3996senSINT-PIETERS-LEEUW
498.345GROSSE Jean-Pierre41FRALG TEAM2:01:535:47 10.3982h40STIRING-WENDEL
499.385GRELLMANN Reinhold52USA2:01:545:47 10.3879h50VELDHOVEN
500.570FPIJNENBORG Hilde44BELSPARTA BORNEM2:02:025:48 10.3712f40BORNEM
DNF: abandon; DSQ: disqualifié; Vitesse en km/h
06/08/2020 - 01:09 - 676 Entrées
ChronoRace - Electronic Timing SPRL
http://www.chronorace.be

Page 10 / 14  
Maasmarathon de la Basse-Meuse
CAP Visé, 14/05/2017, BEL
Marathon - Après 21km
21.095km 
Catégorie
PosNrNomAgeIOCEquipeRéelTempsTkmMoy.RangNomLocalité
501.110FRECHES Winfried59BEL2:02:055:48 10.3743h55HERZOGENRATH
502.312BOLLENS Quentin39BEL2:02:075:48 10.3751h35SENEFFE
503.580RUYTERS Jo46BELJO RUYTERS2:02:085:48 10.3677h45RIEMST
504.698POTEAU Yann41FRALUNEL ATHLÉTISM2:02:215:48 10.3583h40
505.363FWALSTOCK-MULDERS Nicole39NLD2:02:215:48 10.3511f35LANAKEN
506.543FINZAINA Ines53BELLOPERSGROEP LAN2:02:215:48 10.355f50ZUTENDAAL
507.615NELIS Benoit48BELJCPMF2:02:215:48 10.3478h45BOUGE
508.55FDE PONTEVÈS Thalia25BEL2:02:245:49 10.3411damBRUXELLES
509.61SIMONS Bert49BEL2:02:255:49 10.3479h45MERKSEM
510.683FDUMONT Marianne47BELSER ATHL2:02:285:49 10.348f45OLNE
511.603FHONNAY Sophie38BEL2:02:335:49 10.3312f35ERNAGE
512.225MARTIN Cédric33BEL2:02:375:49 10.3297senSAMBREVILLE
513.2153FVANDELOISE Caroline36BEL2:02:385:49 10.3213f35SAMBREVILLE
514.340OOSTERLYNCK Filip54BEL2:02:445:50 10.3180h50MEIGEM (DEINZE)
515.96FFOURGEAUX Sophie38BELMJ SPORT2:03:045:50 10.2914f35MOHA
516.99FSCOHIER Michelle56BELMICHELLE SCOHIE2:03:045:51 10.294f55ANTHEIT
517.152HOCHEDEZ Albert55FRAALBERT HOCHEDEZ2:03:045:51 10.2944h55HERLIES
518.168BAEYENS Albert39BEL2:03:065:51 10.2852h35BAVEGEM
519.398PICQUET Rodolphe46FRARODOLPHE PICQUE2:03:075:51 10.2880h45BONDUES
520.708LERCHE Eric52BEL2:03:075:51 10.2881h50
521.169DE LAVALLAZ François-Régis50FRA2:03:075:51 10.2882h50BONDUES
522.585DEMANDT Pieter31BEL2:03:075:51 10.2898senBASSENGE
523.50FVANDEWEYER Ludivine39BELSERUNNERS2:03:135:51 10.2715f35FLÉMALLE
524.636LACASSE Jean50BEL2:03:315:52 10.2583h50HANNUT
525.504PAULY Philip47BEL2:03:325:52 10.2581h45BILZEN
526.605SCHROEDER Hans-Willi61DEU2:03:395:52 10.2418h60JÜLICH
527.290DESAIR Kristof44BEL2:03:405:52 10.2484h40HEUSDEN-ZOLDER
528.673MONAMI Serge50BEL2:03:455:52 10.2384h50HOUSSE
529.530CARLIER Daniel45BEL2:03:495:53 10.2282h45BRUXELLES
530.540CLAEYS Yves30BEL2:03:515:53 10.2299senHEMIKSEM
531.539FBALLIU Kaya32BEL2:03:515:53 10.2212damHEMIKSEM
532.147AERTS Davy36BEL2:03:535:53 10.2253h35KOERSEL
533.746SEPULCHRE Rodolphe50GBR2:03:545:53 10.2285h50NEUPRE
534.184FCOULONVAUX Sophie41BELJCPMFG2:04:085:54 10.2013f40GLABAIS
535.283JAUMOTTE Benoit49BEL2:04:165:54 10.1983h45AYE
536.451ALLARD Philippe68FRARCARRAS2:04:185:54 10.187h65BLAIRVILLE
537.115LAMBERT Frédéric32BEL2:04:195:54 10.18100senBRAINE-LE-COMTE
538.114FDEMARET Mélanie28BEL2:04:195:54 10.1813damBRAINE-LE-COMTE
539.288FDE VALENSART Nathalie47BEL2:04:255:54 10.179f45LASNE
540.401WILLEM Yves34BELTURBO LLN2:04:385:55 10.16101senTILLY
541.387FGILLARD Isabelle29BEL2:04:395:55 10.1614damTILLY
542.476FBOULTON Janine53BEL2:04:395:55 10.156f50BOLLAND
543.597FVANCRAYBEX Julie26BELCHC2:04:395:55 10.1515damBATTICE
544.482FEL BALDI Fatihia41BEL2:04:395:55 10.1514f40XHENDELESSE
545.88FDECRUCQ Marjorie36FRA2:04:445:55 10.1516f35THUMERIES
546.87FVÉDRINE Clémence27FRA2:04:445:55 10.1516damAVELIN
547.354POULS Jacky47BEL2:04:455:55 10.1584h45GENK
548.24ONSSELS Jean-Claude67BELRUN 4 FUN2:04:495:56 10.148h65SOUMAGNE
549.413GEYS Rob69BEL2:04:515:56 10.149h65ANTWERPEN
550.310BECKERS Dieter39BEL2:04:535:56 10.1454h35DILSEN-STOKKEM
DNF: abandon; DSQ: disqualifié; Vitesse en km/h
06/08/2020 - 01:09 - 676 Entrées
ChronoRace - Electronic Timing SPRL
http://www.chronorace.be

Page 11 / 14  
Maasmarathon de la Basse-Meuse
CAP Visé, 14/05/2017, BEL
Marathon - Après 21km
21.095km 
Catégorie
PosNrNomAgeIOCEquipeRéelTempsTkmMoy.RangNomLocalité
551.86BATTARD Vincent53BEL2:04:555:56 10.1386h50SOIGNIE
552.763VRANKENNE Christophe42BEL2:05:025:56 10.1285h40
553.678MANGON Nicolas Edgard42BEL2:05:045:56 10.1286h40WAREMME
554.171RIOU Pierre39BEL2:05:075:56 10.1255h35FORRIÈRES
555.286FCOMPÈRE Sophie23BELJAMES CLUB2:05:105:56 10.1117damOTTIGNIES
556.332LASCHET Jacques64BELMPW2:05:205:57 10.1019h60HERSTAL
557.546MIGLIARA Salvatore58ITAMPW/HJM2:05:205:57 10.1045h55HERSTAL
558.132LOGGHE Filip46BELMACW DIKSMUIDE2:05:215:57 10.1085h45DIKSMUIDE
559.596FWERY Julie38BELCHC2:06:065:59 10.0417f35HERVE
560.277DI PRIMA Filippo62ITARUNNING SOUMAGN2:06:075:59 10.0420h60SOUMAGNE
561.524TEURLINGS Philippe50BEL2:06:146:00 10.0387h50TOURINNES-SAINT-LAMBERT
562.599GHELEN Danny41NLD2:06:266:00 10.0187h40EIJSDEN
563.357PAUWELS Jerome47FRA2:06:336:00 10.0086h45ASNIERES SUR SEINE
564.620FCAUDRON Emmanuelle39BEL2:06:356:00 10.0018f35EGHEZEE
565.164DE WALQUE Grégoire40BEL2:06:536:01 9.9888h40JETTE
566.151STASSEN Philippe28BEL2:06:566:02 9.97102senHOMBOURG
567.187RENARDY Laurent27BEL2:06:566:02 9.97103senMONTZEN
568.601MONTAGNEUX Sébastien41BELFNO62:06:586:02 9.9789h40LIÈGE
569.122LAFFINEUR Jean-Michel56BELLA WEPIONNAISE2:06:596:02 9.9746h55JAMBES
570.16SCHEPERS Joeri46BEL2:07:016:02 9.9787h45AALTER
571.278DERIKX Har62NLD2:07:016:02 9.9721h60STRAMPROY
572.485FLENAERS Jozefien31BEL2:07:016:02 9.9718damKERMT
573.486MAES Frederik41BEL2:07:016:02 9.9790h40DIEPENBEEK
574.732FJANSSEN Sabine50BEL2:07:026:02 9.967f50
575.641FROEYGENS Heidi47BEL2:07:026:02 9.9610f45MALDEGEM
576.112FCANNAERTS Priscilla35BEL2:07:026:02 9.9619f35RAMSEL
576.696TOUSSAINT Luc54BEL2:07:026:02 9.9688h50BATTICE
578.664MICHEL Jérôme40BEL2:07:026:02 9.9691h40LIEGE
579.625SCHEPERS Loughlin21BELJC AALTER2:07:036:02 9.96104senAALTER
580.319FDIRKX Goedele34BEL2:07:036:02 9.9619damREKEM
581.575SOPALA Dariusz50DEU2:07:346:03 9.9289h50NEUSS
582.481FETIENNE Nadia50BEL2:07:346:03 9.928f50VERVIERS
583.31HASTIR Olivier41BEL2:07:376:03 9.9292h40MOHIVILLE
584.70CUPELLI Salvatore61ITA2:07:406:04 9.9222h60WARSAGE
585.761MARTIN Didier56BEL2:08:096:05 9.8847h55
586.257RIGAL Philippe45BEL2:08:126:05 9.8788h45VILLERS DEUX EGLISES
587.379D'HOND Guy48BEL2:08:166:05 9.8789h45OUDENAARDE
588.598FSTASSEN Sonja32BEL2:08:286:06 9.8520damHOESELT
589.245DANESE Marc54BEL2:09:356:09 9.7790h50SAINTE ODE
590.265HAUSTRATE Fred51BELTIME TO RUN TOU2:09:366:09 9.7791h50PIPAIX
591.517GÉORIS Mickael42BELSPT2:09:386:09 9.7693h40CHAMPLON
592.518GERARD Raphael32BELSPT2:09:386:09 9.76105senCHAMPLON
593.415KORTOOMS Jo57NLD2:10:276:12 9.7048h55PAPENDRECHT
594.123MAY Jean-Christophe50FRA2:10:286:12 9.7092h50LASNE
595.34DAOUST Yves56BEL2:10:326:12 9.7049h55SERAING
596.681VAN DE WEERDT Jef67NLDLIBERT RUNNERS 2:10:446:12 9.6810h65MAASTRICHT
597.234MAES Cedric26BEL2:11:276:14 9.63106senHAASDONK
598.138FBAILEY Sophie42GBR2:11:496:15 9.6015f40HAILSHAM
599.188FDELAEY Sarah-Line28BEL2:12:226:17 9.5621damLISOGNE
600.243FBELIEN Ellie35BEL2:12:236:17 9.5620f35LAAKDAL
DNF: abandon; DSQ: disqualifié; Vitesse en km/h
06/08/2020 - 01:09 - 676 Entrées
ChronoRace - Electronic Timing SPRL
http://www.chronorace.be

Page 12 / 14  
Maasmarathon de la Basse-Meuse
CAP Visé, 14/05/2017, BEL
Marathon - Après 21km
21.095km 
Catégorie
PosNrNomAgeIOCEquipeRéelTempsTkmMoy.RangNomLocalité
601.461FREUTER Léonie58BEL2:12:566:19 9.525f55STEINSEL
602.178LEONE Julien38BEL2:13:106:19 9.5156h35FORCHIES LA MARCHE
603.113SMETS Patrick54BEL2:13:166:20 9.5093h50TREMELO
604.632BRUERS Stijn36BEL2:13:206:20 9.4957h35DEURNE
605.329RIGAUX Didier52BEL2:13:356:20 9.4894h50MARBEHAN
606.77AMBUHL Vincent49CHE2:13:516:21 9.4690h45BRUXELLES
607.726HOEKEN Michel69BELDE GRENSLAUPERS2:14:236:23 9.4211h65
608.289DE WIT Jean-Yves34BEL2:14:246:23 9.42107senBLEGNY
609.706LAGRENET Mike39BEL2:14:246:23 9.4258h35VISÉ
610.621FTHOMAS Stephanie38BELTRÉVIRE TRAIL C2:14:256:23 9.4221f35CHATILLON
611.474FGERARD Valérie42BELTRÉVIRE TRAIL C2:14:266:23 9.4216f40HOUDEMONT
612.434GEERAERTS Kristof39BEL2:14:306:23 9.4159h35GAVERE
613.201FHAGE Heleen42NLD2:14:316:23 9.4117f40HEERDE
614.90FRAOULX Guilene52FRALUNEL ATHLETISM2:14:356:23 9.409f50MARSILLARGUES
615.221GERADON Jean-François43BELFLEMALLE ATHLET2:14:366:23 9.4094h40FLEMALLE
616.684FISMAN Dehen50AUT2:15:036:25 9.3710f50AACHEN
617.471FWAUTERS Lizette58BEL2:15:376:26 9.336f55BILZEN
618.315FCOLYN Marie Claire62BEL2:15:396:26 9.334f60BEAUFAYS
619.23THYS David42BEL2:15:476:27 9.3295h40NEEROETEREN
620.448FJURION Muriel48BEL2:15:586:27 9.3111f45FELUY
621.447SEVERIJNS Tom47BEL2:16:166:28 9.2991h45ZONHOVEN
622.298HILLION Sebastien42FRA2:16:396:29 9.2696h40EUPEN
623.17DE BLOCK Thierry64BEL2:16:396:29 9.2623h60BRUGGE
624.285FBOLAND Mélanie27BEL2:16:396:29 9.2622damGRIVEGNÉE
625.703CHIARI Luca45ITA2:16:396:29 9.2692h45PARIS
626.222BOLAND Alain52BEL2:16:406:29 9.2695h50LIEGE
627.42FLORAM Gianni45BEL2:16:406:29 9.2693h45FLEMALLE
628.747DE KEYSER Gust69BELLOGGAUS2:16:406:29 9.2612h65
629.43VANHEES Jean-Louis64BEL2:16:406:29 9.2624h60PERWEZ
630.718ARCQ Rodrigue17BEL2:16:406:29 9.26108sen
631.177FTANCREDI-LERUTH Isabelle44BEL2:17:236:31 9.2118f40ARGENTEAU
632.414GOISSE Olivier44BELFAMILY RUNNERS 2:17:236:31 9.2197h40LANEFFE
633.304PAVIN Gregory34BELRUN AND LOVE2:17:306:32 9.21109senVISÉ
634.404FBLANJEAN Arielle26BEL2:18:036:33 9.1723damAYWAILLE
635.313FBOTNARI Larisa28ROU2:18:076:33 9.1624damLOUVAIN-LA-NEUVE
636.136BOUTAY Jean-François44BELJCPMF SOMME-LEU2:18:086:33 9.1698h40BAILLONVILLE
637.135FCHAUSSOY Anne43FRASAINT MARTIN AT2:19:296:37 9.0719f40BOULOGNE SUR MER
638.195FROETS Clio32BEL2:19:536:38 9.0525damOOSTKAMP
639.129KUHLMEY Juergen79DEU2:20:066:39 9.032h70OLDENBURG
640.454FDE VOS Karine47BEL2:20:206:40 9.0212f45BONHEIDEN
641.562MOLARA Nicolo39FRA2:21:506:44 8.9260h35GOMMEGNIES
642.386FFRAENKEL Annette49DEULUSTLAUF MEIN V2:22:196:45 8.8913f45AACHEN
643.175FMONTÉGNIES Sabrina40BEL2:22:416:46 8.8720f40HOUDENG-GOEGNIES
644.390LENDL Udo55DEUUNSTABILER STRA2:23:296:49 8.8250h55GELSENKIRCHEN
645.359ADANT Frédéric44BELJCPMF JUPRELLE2:23:496:50 8.8099h40ROCOURT
646.462DURINCK Harry51NLD2:23:526:50 8.8096h50KALKEN
647.523YILDIZ Olgun35BEL2:23:556:50 8.8061h35VISÉ
648.549SNEPPE Guido64BEL2:24:046:50 8.7925h60SINT-ANDRIES
649.45CAMUS Olivier36BEL2:24:246:51 8.7762h35BEN-AHIN
650.464FSCHRAEPEN Marina51BEL2:24:446:52 8.7511f50HASSELT
DNF: abandon; DSQ: disqualifié; Vitesse en km/h
06/08/2020 - 01:09 - 676 Entrées
ChronoRace - Electronic Timing SPRL
http://www.chronorace.be

Page 13 / 14  
Maasmarathon de la Basse-Meuse
CAP Visé, 14/05/2017, BEL
Marathon - Après 21km
21.095km 
Catégorie
PosNrNomAgeIOCEquipeRéelTempsTkmMoy.RangNomLocalité
651.276GAGNON Robert André72CAN2:24:476:52 8.743h70AACHEN
652.199BEAUDOT Marc58BELARCH2:26:346:57 8.6451h55CINEY
653.128BASTIN Joel39BEL2:26:586:59 8.6163h35WAREMME
654.119FVERSCHAEREN Valerie26BEL2:27:036:59 8.6126damSCHAFFEN
655.154FLEAH Hansen29USA2:27:367:00 8.5827damPORT HADLOCK
656.528VANDEZANDE Luc61BELLUC VANDEZANDE2:30:227:08 8.4226h60ERPENT
657.217VAN INGH Serge60BEL2:30:247:08 8.4227h60KEUMIÉE
658.333FDE WACHTER Kristien38BEL2:31:027:10 8.3822f35HOBOKEN
659.349FSENIOW Anna38BEL2:31:027:10 8.3823f35BORGERHOUT
660.665MAZZA Pietro57BEL2:31:167:11 8.3752h55SERAING
661.727FAELBERS Els49BELATLA2:34:077:19 8.2114f45
662.702FGILJANOVIC Maja37HRV2:35:067:22 8.1624f35PARIS 75020
663.350FSQUELIN Michele44BELISOSL2:36:227:25 8.1021f40RETINNE
664.422FROTSAERT Christine53NLD2:36:567:27 8.0712f50ALKMAAR
665.538SCHMITZ Robert68BEL2:37:577:30 8.0113h65BASTOGNE
666.167DELTOMBE Lionel43BEL2:38:507:32 7.97100h40VELAINE-SUR-SAMBRE
667.722STINDERS Thomas40BEL2:42:307:43 7.79101h40
DSQ239DESMET Guillaume26BELsenCLAVIER
DSQ297HERTELEER Christian67BELJC AALTERh65BELLEM
DSQ9KOGO Pius Kipchirchir29KENsenLYON
DSQ430PIERRET Claude48BELCLAUDE PIERRETh45ATHUS
DSQ533NIJSSEN Hugo52NLD1:33:08h50PEEL EN MAAS
DSQ328PAQUET Olivier41BELJACO1:36:41h40COUVIN
DNF134KAYE Phil49GBRh45KNOERINGUE
DNF661SCHLUPP Arnaud27FRAsenMERELBEKE
DNF640STROH Samir37CHEh35MÜNCHENSTEIN
DNF: abandon; DSQ: disqualifié; Vitesse en km/h
06/08/2020 - 01:09 - 676 Entrées
ChronoRace - Electronic Timing SPRL
http://www.chronorace.be

Page 14 / 14